KMFI/MFI METAR and TAF weather

Enter ICAO airport designator
Station Type Date Time Source
KMFI METAR 2020/01/26 18:54 UTC NOAA

KMFI 261854Z AUTO 32008KT 4SM BR OVC003 M04/M05 A2985 RMK AO2 SLP126 T10391050


Station Type Date Time Source
KMFI Decoded METAR 2020/01/26 18:54 UTC NOAA

MARSHFIELD MUNICIPAL AIRPORT, WI, United States (KMFI) 44-38N 90-11W 379M
Jan 26, 2020 - 01:54 PM EST / 2020.01.26 1854 UTC
Wind: from the NW (320 degrees) at 9 MPH (8 KT):0
Visibility: 4 mile(s):0
Sky conditions: overcast
Weather: mist
Temperature: 25.0 F (-3.9 C)
Windchill: 15 F (-9 C):1
Dew Point: 23.0 F (-5.0 C)
Relative Humidity: 92%
Pressure (altimeter): 29.85 in. Hg (1010 hPa)
ob: KMFI 261854Z AUTO 32008KT 4SM BR OVC003 M04/M05 A2985 RMK AO2 SLP126 T10391050
cycle: 19

Station Type Date Time Source
KMFI TAF UTC NOAA

Error!

Example: see airport list